Decoded Metar for OIAM (BANDAR MAHSHAHR in IRAN) (IATA:MRX) | Meteo·Mobile Aviation Weather
aviador You're here:

OIAM Decoded Metar

BANDAR MAHSHAHR in IRAN
Report Time2019-04-25 22:00:00
UTC Time2019-04-25 22:13:43
Flight Rules vfr VFR
Wind290° at 08 kt
W.Decomp.*RWY 31: 7.4 kt HW 3.1 kt LCW
Visibility9999 m
Phenomena:N/A
Clouds:N/A
Expected CloudBase > 3,600 ft AGL from Temp-Dew spread
CeilingNone
Temp19°C (ISA +4)
Dew Point10°C (56% RH)
AAT16.2°C
QNH1013 hPa
Density Alt650 ft
Elevation13 ft
Report Wrong Elevation
Raw Report
METAR OIAM 252200Z 29008KT CAVOK 19/10 Q1013=

Extra information for OIAM:More info

Metar Taf Metar & Taf Last 4 Metars F.Rules Stats Wind Profile Meteogram Temp Stats Airport Information Weather charts Add Link Nearby VenuesMetar ALERT Operation Metar Decoded Social comments